createdAt,value
2022-11-20T00:01:27.702Z,59.8
2022-11-20T00:05:10.091Z,59.71
2022-11-20T00:10:14.878Z,59.95
2022-11-20T00:15:19.555Z,60.02
2022-11-20T00:20:16.105Z,59.82
2022-11-20T00:25:12.624Z,59.84
2022-11-20T00:30:17.421Z,59.98
2022-11-20T00:32:53.799Z,59.95
2022-11-20T00:35:22.063Z,59.95
2022-11-20T00:39:12.661Z,59.97
2022-11-20T00:41:40.975Z,60
2022-11-20T00:44:09.179Z,59.84
2022-11-20T00:49:13.889Z,59.96
2022-11-20T00:52:56.287Z,59.83
2022-11-20T00:55:24.580Z,60.19
2022-11-20T00:57:52.855Z,60.18
2022-11-20T01:01:43.456Z,60.23
2022-11-20T01:04:11.711Z,60.2
2022-11-20T01:08:02.287Z,60.37
2022-11-20T01:10:30.534Z,60.32
2022-11-20T01:12:58.851Z,60.46
2022-11-20T01:15:27.122Z,60.68
2022-11-20T01:17:55.360Z,60.48
2022-11-20T01:21:45.944Z,60.46
2022-11-20T01:24:14.219Z,60.47
2022-11-20T01:26:42.489Z,59.95
2022-11-20T01:29:10.745Z,60.59
2022-11-20T01:31:38.986Z,60.59
2022-11-20T01:34:07.289Z,60.55
2022-11-20T01:36:35.574Z,60.52
2022-11-20T01:41:32.088Z,60.48
2022-11-20T01:44:00.337Z,60.37
2022-11-20T01:46:28.610Z,60.42
2022-11-20T01:50:19.311Z,60.46
2022-11-20T01:52:55.667Z,60.35
2022-11-20T01:55:23.920Z,60.5
2022-11-20T01:59:14.559Z,60.46
2022-11-20T02:03:05.118Z,60.43
2022-11-20T02:05:33.393Z,60.5
2022-11-20T02:09:15.782Z,60.59
2022-11-20T02:12:58.167Z,60.44
2022-11-20T02:15:30.200Z,60.59
2022-11-20T02:19:08.842Z,60.51
2022-11-20T02:22:51.252Z,60.46
2022-11-20T02:25:19.486Z,60.56
2022-11-20T02:29:10.079Z,60.18
2022-11-20T02:34:06.588Z,60.4
2022-11-20T02:40:25.462Z,60.35
2022-11-20T02:45:13.837Z,60.33
2022-11-20T02:50:18.640Z,60.25
2022-11-20T02:54:17.351Z,60.42
2022-11-20T02:59:13.964Z,60.46
2022-11-20T03:04:27.839Z,60.49
2022-11-20T03:13:22.187Z,60.82
2022-11-20T03:17:12.715Z,60.76
2022-11-20T03:22:25.622Z,60.45
2022-11-20T03:31:21.000Z,60.88
2022-11-20T03:35:19.692Z,60.89
2022-11-20T03:40:24.452Z,60.69
2022-11-20T03:44:15.119Z,60.61
2022-11-20T03:53:18.540Z,60.25
2022-11-20T03:58:15.281Z,60.26
2022-11-20T04:02:05.823Z,60.49
2022-11-20T04:07:10.444Z,60.58
2022-11-20T04:12:15.189Z,60.78
2022-11-20T04:17:28.038Z,61.07
2022-11-20T04:21:18.641Z,60.67
2022-11-20T04:25:09.301Z,61.06
2022-11-20T04:30:14.056Z,60.79
2022-11-20T04:35:18.663Z,60.73
2022-11-20T04:40:15.306Z,60.6
2022-11-20T04:44:14.037Z,60.87
2022-11-20T04:49:10.517Z,60.8
2022-11-20T04:54:07.035Z,60.67
2022-11-20T05:05:22.537Z,60.95
2022-11-20T05:07:58.897Z,61.17
2022-11-20T05:11:51.570Z,61.12
2022-11-20T05:14:17.809Z,61.23
2022-11-20T05:16:46.048Z,61.14
2022-11-20T05:19:14.341Z,60.99
2022-11-20T05:21:42.577Z,60.95
2022-11-20T05:25:08.615Z,60.72
2022-11-20T05:27:36.854Z,60.66
2022-11-20T05:31:23.543Z,60.44
2022-11-20T05:36:24.017Z,60.82
2022-11-20T05:46:17.157Z,61.23
2022-11-20T05:51:21.780Z,61.32
2022-11-20T05:55:12.442Z,61.2
2022-11-20T06:04:07.704Z,61.55
2022-11-20T06:10:18.320Z,61.62
2022-11-20T06:15:14.879Z,61.8
2022-11-20T06:25:16.141Z,61.65
2022-11-20T06:27:44.453Z,61.29
2022-11-20T06:31:26.796Z,61.77
2022-11-20T06:35:09.206Z,61.33
2022-11-20T06:37:37.551Z,60.8
2022-11-20T06:40:05.719Z,61.14
2022-11-20T06:42:33.990Z,61.41
2022-11-20T06:45:02.292Z,61.4
2022-11-20T06:47:30.580Z,61.34
2022-11-20T06:49:58.802Z,61.21
2022-11-20T06:56:25.850Z,62.22
2022-11-20T07:05:12.977Z,62.08
2022-11-20T07:15:06.077Z,62.1
2022-11-20T07:21:16.729Z,62.04
2022-11-20T07:27:35.653Z,62.2
2022-11-20T07:30:12.023Z,62.19
2022-11-20T07:34:02.605Z,62.22
2022-11-20T07:37:28.614Z,62.28
2022-11-20T07:41:11.009Z,62.54
2022-11-20T07:45:01.632Z,62.29
2022-11-20T07:47:29.878Z,62.03
2022-11-20T07:51:20.483Z,62.17
2022-11-20T07:53:48.745Z,62.3
2022-11-20T07:56:16.990Z,62.17
2022-11-20T07:58:45.284Z,62.31
2022-11-20T08:02:35.868Z,62.36
2022-11-20T08:05:04.141Z,62.51
2022-11-20T08:07:32.407Z,62.54
2022-11-20T08:11:22.993Z,62.51
2022-11-20T08:13:51.249Z,62.61
2022-11-20T08:17:41.928Z,62.66
2022-11-20T08:21:36.775Z,62.76
2022-11-20T08:25:14.866Z,62.94
2022-11-20T08:27:43.078Z,63
2022-11-20T08:31:25.536Z,62.95
2022-11-20T08:34:51.541Z,63.1
2022-11-20T08:37:19.790Z,63.46
2022-11-20T08:39:48.074Z,63.53
2022-11-20T08:42:16.336Z,63.44
2022-11-20T08:51:11.632Z,64.43
2022-11-20T08:56:16.385Z,63.96
2022-11-20T09:01:21.281Z,64.07
2022-11-20T09:15:12.958Z,64.11
2022-11-20T09:25:14.345Z,63.17
2022-11-20T09:34:01.293Z,63.36
2022-11-20T09:40:20.313Z,63.13
2022-11-20T09:44:10.764Z,62.99
2022-11-20T09:49:07.374Z,63.49
2022-11-20T09:54:12.033Z,63.95
2022-11-20T09:59:16.766Z,63.95
2022-11-20T10:04:13.278Z,63.91
2022-11-20T10:09:09.829Z,64.09
2022-11-20T10:15:36.881Z,63.47
2022-11-20T10:18:05.147Z,64.02
2022-11-20T10:21:55.723Z,63.34
2022-11-20T10:25:46.329Z,62.98
2022-11-20T10:28:14.608Z,63.4
2022-11-20T10:32:05.192Z,63.09
2022-11-20T10:35:31.172Z,62.27
2022-11-20T10:37:59.476Z,62.01
2022-11-20T10:41:41.876Z,61.8
2022-11-20T10:45:32.448Z,62.14
2022-11-20T10:48:00.705Z,62.43
2022-11-20T10:51:43.115Z,62.06
2022-11-20T10:55:25.509Z,62.7
2022-11-20T10:57:53.805Z,62.4
2022-11-20T11:01:36.239Z,62.54
2022-11-20T11:05:18.598Z,61.79
2022-11-20T11:07:46.841Z,62.1
2022-11-20T11:15:28.125Z,60.08
2022-11-20T11:19:18.653Z,59.64
2022-11-20T11:23:09.324Z,57.47
2022-11-20T11:28:22.115Z,56.77
2022-11-20T11:33:26.941Z,56.24
2022-11-20T11:37:09.370Z,54.44
2022-11-20T11:42:13.987Z,53.83
2022-11-20T11:47:10.511Z,52.33
2022-11-20T11:52:15.249Z,51.93
2022-11-20T11:57:11.793Z,52.34
2022-11-20T12:02:08.359Z,51.01
2022-11-20T12:07:31.373Z,51.66
2022-11-20T12:12:17.776Z,52.61
2022-11-20T12:16:08.455Z,52.85
2022-11-20T12:21:13.085Z,52.04
2022-11-20T12:26:09.626Z,51.71
2022-11-20T12:32:20.281Z,52.22
2022-11-20T12:34:48.563Z,52.48
2022-11-20T12:37:08.679Z,52.22
2022-11-20T12:43:19.375Z,52.15
2022-11-20T12:47:09.879Z,52.26
2022-11-20T12:52:06.448Z,50.35
2022-11-20T12:58:17.173Z,50.55
2022-11-20T13:02:15.868Z,48.82
2022-11-20T13:07:20.596Z,49.72
2022-11-20T13:12:25.326Z,49.4
2022-11-20T13:16:15.893Z,49
2022-11-20T13:26:25.353Z,47.81
2022-11-20T13:30:15.963Z,47.55
2022-11-20T13:35:20.658Z,47.53
2022-11-20T13:40:09.090Z,47.45
2022-11-20T13:45:21.930Z,47.64
2022-11-20T13:50:18.489Z,47.85
2022-11-20T13:55:15.035Z,48.39
2022-11-20T14:00:11.621Z,46.58
2022-11-20T14:05:08.050Z,45.95
2022-11-20T14:08:58.640Z,46.63
2022-11-20T14:12:41.069Z,46.49
2022-11-20T14:16:31.661Z,46.56
2022-11-20T14:18:59.888Z,46.8
2022-11-20T14:22:42.303Z,46.85
2022-11-20T14:26:24.740Z,46.65
2022-11-20T14:28:52.955Z,47.17
2022-11-20T14:32:35.424Z,46.9
2022-11-20T14:37:17.146Z,47.8
2022-11-20T14:46:10.946Z,48.3
2022-11-20T14:55:14.352Z,49.77
2022-11-20T15:00:10.880Z,50.28
2022-11-20T15:05:07.459Z,50.51
2022-11-20T15:16:22.803Z,50.97
2022-11-20T15:18:51.052Z,51.06
2022-11-20T15:22:33.506Z,51.96
2022-11-20T15:26:24.063Z,50.8
2022-11-20T15:28:52.368Z,52.39
2022-11-20T15:32:34.757Z,52.3
2022-11-20T15:36:25.332Z,51.95
2022-11-20T15:38:53.614Z,52.79
2022-11-20T15:42:36.017Z,53.02
2022-11-20T15:46:18.406Z,53.24
2022-11-20T15:49:44.404Z,53.21
2022-11-20T15:52:12.692Z,53.5
2022-11-20T15:54:40.922Z,53.54
2022-11-20T15:57:09.227Z,53.64
2022-11-20T16:02:18.828Z,53.5
2022-11-20T16:07:10.538Z,51.86
2022-11-20T16:13:29.326Z,51.46
2022-11-20T16:17:19.935Z,54.02
2022-11-20T16:22:16.523Z,54.1
2022-11-20T16:26:15.260Z,54.14
2022-11-20T16:31:11.770Z,53.56
2022-11-20T16:36:08.287Z,53.01
2022-11-20T16:42:18.972Z,53.06
2022-11-20T16:47:15.490Z,54.07
2022-11-20T16:53:26.147Z,54.59
2022-11-20T16:57:08.570Z,54.42
2022-11-20T17:03:27.433Z,54.81
2022-11-20T17:07:09.870Z,55.23
2022-11-20T17:13:20.496Z,55.06
2022-11-20T17:17:11.066Z,54.98
2022-11-20T17:19:39.353Z,55.29
2022-11-20T17:22:07.619Z,55.79
2022-11-20T17:25:58.239Z,55.99
2022-11-20T17:28:26.471Z,55.97
2022-11-20T17:32:08.890Z,56.05
2022-11-20T17:37:13.617Z,56.54
2022-11-20T17:39:41.880Z,56.61
2022-11-20T17:42:10.146Z,56.65
2022-11-20T17:44:38.399Z,56.92
2022-11-20T17:47:06.664Z,56.85
2022-11-20T17:49:34.903Z,57.07
2022-11-20T17:52:03.198Z,56.94
2022-11-20T17:55:45.618Z,57.17
2022-11-20T17:59:27.991Z,57.32
2022-11-20T18:02:04.495Z,57.47
2022-11-20T18:13:11.668Z,58.11
2022-11-20T18:16:54.077Z,58.19
2022-11-20T18:21:50.570Z,58.32
2022-11-20T18:24:18.820Z,58.43
2022-11-20T18:28:01.240Z,58.47
2022-11-20T18:31:43.631Z,58.55
2022-11-20T18:36:48.399Z,58.66
2022-11-20T18:41:53.103Z,59.48
2022-11-20T18:45:35.516Z,59.5
2022-11-20T18:49:17.878Z,59.96
2022-11-20T18:53:00.308Z,59.83
2022-11-20T18:56:42.694Z,59.56
2022-11-20T19:01:39.243Z,59.11
2022-11-20T19:04:07.513Z,59.25
2022-11-20T19:07:49.929Z,58.79
2022-11-20T19:12:46.445Z,58.7
2022-11-20T19:15:14.677Z,58.53
2022-11-20T19:18:57.367Z,58.75
2022-11-20T19:22:47.692Z,59.16
2022-11-20T19:25:15.966Z,58.96
2022-11-20T19:27:44.202Z,58.77
2022-11-20T19:30:12.491Z,59.37
2022-11-20T19:32:40.746Z,59.35
2022-11-20T19:35:09.011Z,59.74
2022-11-20T19:38:35.055Z,59.27
2022-11-20T19:41:03.326Z,59.6
2022-11-20T19:44:53.926Z,59.64
2022-11-20T19:47:22.879Z,59.61
2022-11-20T19:49:50.429Z,60.02
2022-11-20T19:53:41.013Z,59.68
2022-11-20T19:56:09.285Z,59.77
2022-11-20T19:58:37.561Z,59.84
2022-11-20T20:01:05.836Z,59.98
2022-11-20T20:03:34.100Z,59.7
2022-11-20T20:06:02.335Z,59.7
2022-11-20T20:08:30.591Z,59.87
2022-11-20T20:10:59.715Z,59.74
2022-11-20T20:14:49.491Z,59.79
2022-11-20T20:17:17.742Z,59.55
2022-11-20T20:19:46.041Z,59.57
2022-11-20T20:22:14.244Z,59.67
2022-11-20T20:24:42.569Z,59.7
2022-11-20T20:27:10.803Z,59.34
2022-11-20T20:30:53.218Z,60.19
2022-11-20T20:34:35.652Z,59.7
2022-11-20T20:37:03.888Z,59.33
2022-11-20T20:40:46.316Z,59.45
2022-11-20T20:43:22.745Z,59.41
2022-11-20T20:48:27.493Z,59.28
2022-11-20T20:52:09.924Z,59.16
2022-11-20T21:03:28.276Z,59.91
2022-11-20T21:07:15.892Z,59.86
2022-11-20T21:12:20.656Z,60.15
2022-11-20T21:16:11.177Z,60.27
2022-11-20T21:21:07.698Z,59.95
2022-11-20T21:26:12.395Z,59.53
2022-11-20T21:31:08.975Z,59.63
2022-11-20T21:41:18.425Z,59.49
2022-11-20T21:46:23.136Z,59.26
2022-11-20T21:51:27.863Z,59.78
2022-11-20T21:55:18.439Z,59.72
2022-11-20T22:00:06.758Z,59.75
2022-11-20T22:05:11.495Z,59.44
2022-11-20T22:15:39.137Z,59.7
2022-11-20T22:19:11.530Z,59.89
2022-11-20T22:24:16.297Z,59.59
2022-11-20T22:29:21.065Z,59.63
2022-11-20T22:34:25.959Z,59.35
2022-11-20T22:38:08.203Z,59.34
2022-11-20T22:43:12.835Z,59.23
2022-11-20T22:48:09.392Z,59.74
2022-11-20T22:54:20.159Z,59.52
2022-11-20T22:56:56.498Z,59.3
2022-11-20T22:59:24.805Z,59.08
2022-11-20T23:01:53.049Z,59.23
2022-11-20T23:05:43.628Z,59.4
2022-11-20T23:09:34.249Z,59.36
2022-11-20T23:15:53.322Z,59.25
2022-11-20T23:18:21.412Z,59.03
2022-11-20T23:22:03.791Z,59.22
2022-11-20T23:25:46.203Z,59.35
2022-11-20T23:28:14.436Z,59.3
2022-11-20T23:32:05.040Z,59.15
2022-11-20T23:35:55.644Z,59.08
2022-11-20T23:38:23.909Z,59.31
2022-11-20T23:42:06.286Z,58.8
2022-11-20T23:45:32.302Z,58.83
2022-11-20T23:48:00.578Z,58.74
2022-11-20T23:51:42.976Z,58.59
2022-11-20T23:55:33.546Z,58.99
2022-11-20T23:58:01.862Z,58.86
